Time;durP1;ratioP1;P1;durP2;ratioP2;P2;SDS_P1;SDS_P2;PMS_P1;PMS_P2;Temp;Humidity;BMP_temperature;BMP_pressure;BME280_temperature;BME280_humidity;BME280_pressure;Samples;Min_cycle;Max_cycle;Signal;HPM_P1;HPM_P2
2023/10/06 00:01:59;;;;;;;5.63;4.77;;;13.80;50.20;;;;;;20637;6869;118157;-80
2023/10/06 00:04:24;;;;;;;5.77;5.00;;;13.70;50.30;;;;;;20633;6869;116458;-82
2023/10/06 00:06:53;;;;;;;7.13;5.37;;;13.40;50.70;;;;;;20613;6869;117628;-81
2023/10/06 00:09:28;;;;;;;8.05;5.62;;;13.10;51.00;;;;;;20415;6869;334815;-81
2023/10/06 00:11:46;;;;;;;6.75;5.95;;;13.30;51.40;;;;;;20409;6869;279351;-81
2023/10/06 00:14:38;;;;;;;7.27;5.23;;;13.60;50.60;;;;;;20645;6869;116600;-83
2023/10/06 00:16:40;;;;;;;6.57;5.73;;;13.50;50.50;;;;;;20379;6869;278944;-81
2023/10/06 00:19:25;;;;;;;6.50;5.90;;;13.60;50.30;;;;;;20411;6869;334016;-83
2023/10/06 00:21:43;;;;;;;5.33;4.87;;;13.90;49.80;;;;;;20622;6869;118430;-82
2023/10/06 00:24:04;;;;;;;8.15;4.90;;;13.70;49.80;;;;;;20646;6869;117999;-81
2023/10/06 00:26:28;;;;;;;8.07;5.70;;;13.40;50.10;;;;;;20448;6869;283010;-83
2023/10/06 00:28:54;;;;;;;9.07;6.12;;;13.50;50.30;;;;;;20430;6869;279128;-82
2023/10/06 00:31:20;;;;;;;6.87;6.15;;;13.70;50.40;;;;;;20455;6869;308204;-83
2023/10/06 00:33:45;;;;;;;6.67;5.20;;;13.90;50.00;;;;;;20651;6869;117765;-83
2023/10/06 00:36:14;;;;;;;8.13;6.20;;;13.70;50.00;;;;;;20443;6867;343355;-81
2023/10/06 00:38:40;;;;;;;5.40;4.90;;;13.70;50.20;;;;;;20638;6868;117750;-82
2023/10/06 00:41:06;;;;;;;6.30;5.13;;;13.50;50.30;;;;;;20605;6868;118399;-81
2023/10/06 00:43:34;;;;;;;7.87;5.85;;;13.20;50.70;;;;;;20420;6868;340259;-84
2023/10/06 00:46:00;;;;;;;6.33;5.63;;;13.30;50.60;;;;;;20680;6868;117988;-83
2023/10/06 00:48:21;;;;;;;5.37;4.57;;;13.20;50.50;;;;;;20663;6868;118502;-81
2023/10/06 00:50:48;;;;;;;7.77;4.90;;;13.00;50.90;;;;;;20651;6868;117850;-81
2023/10/06 00:53:13;;;;;;;6.55;5.55;;;12.80;51.30;;;;;;20425;6868;313928;-83
2023/10/06 00:55:39;;;;;;;6.90;5.80;;;12.90;51.20;;;;;;20446;6868;309632;-81
2023/10/06 00:58:05;;;;;;;6.25;5.60;;;13.30;50.70;;;;;;20446;6868;312788;-83
2023/10/06 01:00:37;;;;;;;5.63;5.03;;;13.60;50.00;;;;;;20685;6868;117198;-84
2023/10/06 01:02:56;;;;;;;8.33;6.27;;;13.50;50.00;;;;;;20432;6868;282459;-81
2023/10/06 01:05:22;;;;;;;7.97;6.03;;;13.50;49.80;;;;;;20456;6868;280282;-83
2023/10/06 01:07:49;;;;;;;6.68;5.28;;;13.70;49.40;;;;;;20673;6868;119630;-83
2023/10/06 01:10:17;;;;;;;6.90;5.90;;;13.50;49.60;;;;;;20430;6868;280535;-82
2023/10/06 01:12:43;;;;;;;6.72;5.78;;;13.50;49.60;;;;;;20433;6869;332896;-82
2023/10/06 01:15:19;;;;;;;6.13;5.53;;;13.70;49.20;;;;;;20633;6869;120281;-83
2023/10/06 01:17:43;;;;;;;7.67;6.40;;;13.50;49.30;;;;;;20432;6869;308084;-84
2023/10/06 01:20:10;;;;;;;7.10;6.40;;;13.50;50.00;;;;;;20435;6869;308582;-81
2023/10/06 01:22:41;;;;;;;8.40;5.97;;;13.70;49.80;;;;;;20635;6869;117334;-84
2023/10/06 01:25:11;;;;;;;6.30;5.47;;;13.50;49.80;;;;;;20609;6869;120471;-82
2023/10/06 01:27:27;;;;;;;9.05;5.70;;;13.20;50.30;;;;;;20611;6869;119761;-83
2023/10/06 01:30:39;;;;;;;8.07;5.57;;;12.90;50.60;;;;;;20651;6869;120084;-82
2023/10/06 01:32:21;;;;;;;7.75;6.95;;;12.70;51.00;;;;;;20118;6869;285180;-81
2023/10/06 01:34:50;;;;;;;8.77;7.10;;;12.90;51.10;;;;;;20439;6869;283300;-84
2023/10/06 01:37:15;;;;;;;7.83;6.50;;;13.30;51.40;;;;;;20411;6869;309006;-81
2023/10/06 01:39:40;;;;;;;8.83;5.83;;;13.50;50.20;;;;;;20631;6869;121388;-81
2023/10/06 01:42:07;;;;;;;7.43;5.85;;;13.40;50.20;;;;;;20652;6869;117824;-83
2023/10/06 01:44:34;;;;;;;7.87;6.65;;;13.00;50.50;;;;;;20433;6869;309517;-81
2023/10/06 01:46:57;;;;;;;7.77;6.97;;;13.10;50.70;;;;;;20413;6867;306206;-82
2023/10/06 01:49:24;;;;;;;7.57;6.27;;;13.20;50.70;;;;;;20656;6868;118227;-82
2023/10/06 01:51:52;;;;;;;6.90;6.20;;;13.20;50.00;;;;;;20439;6868;309157;-84
2023/10/06 01:54:18;;;;;;;7.07;5.93;;;13.30;50.30;;;;;;20649;6868;118507;-83
2023/10/06 01:56:45;;;;;;;5.87;5.10;;;13.10;50.30;;;;;;20642;6868;117825;-83
2023/10/06 01:59:16;;;;;;;6.13;5.23;;;12.90;50.80;;;;;;20622;6868;117403;-82
2023/10/06 02:01:42;;;;;;;7.43;5.57;;;12.60;51.10;;;;;;20651;6868;120949;-84
2023/10/06 02:04:14;;;;;;;8.68;5.43;;;12.40;51.30;;;;;;20646;6868;118365;-81
2023/10/06 02:06:44;;;;;;;5.77;5.17;;;12.30;51.50;;;;;;20619;6868;117561;-84
2023/10/06 02:09:15;;;;;;;5.53;4.97;;;12.20;51.70;;;;;;20629;6868;121990;-83
2023/10/06 02:11:37;;;;;;;6.53;5.13;;;12.10;51.80;;;;;;20626;6868;117789;-84
2023/10/06 02:14:04;;;;;;;7.90;5.67;;;11.90;51.70;;;;;;20651;6868;117869;-82
2023/10/06 02:16:28;;;;;;;7.05;6.22;;;11.90;51.90;;;;;;20447;6868;295707;-83
2023/10/06 02:18:57;;;;;;;5.95;4.87;;;12.20;52.10;;;;;;20651;6868;123737;-84
2023/10/06 02:21:25;;;;;;;6.53;5.33;;;12.20;52.50;;;;;;20650;6868;118800;-84
2023/10/06 02:23:53;;;;;;;6.23;5.47;;;12.10;51.90;;;;;;20669;6869;116618;-84
2023/10/06 02:26:19;;;;;;;5.77;5.13;;;12.00;52.00;;;;;;20619;6869;117402;-82
2023/10/06 02:28:48;;;;;;;6.00;5.07;;;11.90;52.00;;;;;;20625;6869;118467;-84
2023/10/06 02:31:13;;;;;;;7.82;6.60;;;11.80;52.10;;;;;;20427;6869;289698;-81
2023/10/06 02:33:41;;;;;;;6.40;5.80;;;12.10;52.20;;;;;;20424;6869;338697;-85
2023/10/06 02:36:17;;;;;;;11.57;4.90;;;12.50;51.30;;;;;;20632;6869;118353;-82
2023/10/06 02:38:46;;;;;;;98.30;6.43;;;12.50;50.90;;;;;;20438;6869;309504;-85
2023/10/06 02:41:07;;;;;;;174.62;7.90;;;12.60;50.40;;;;;;20613;6869;127791;-81
2023/10/06 02:43:33;;;;;;;145.73;8.18;;;12.40;50.30;;;;;;20441;6869;338356;-81
2023/10/06 02:46:04;;;;;;;410.07;12.33;;;12.50;50.70;;;;;;20631;6869;117679;-83
2023/10/06 02:48:28;;;;;;;188.48;8.25;;;12.30;50.70;;;;;;20425;6869;309622;-81
2023/10/06 02:50:55;;;;;;;168.13;7.80;;;12.60;50.70;;;;;;20417;6869;286520;-82
2023/10/06 02:53:33;;;;;;;;;;;;;;;;;;;;;
2023/10/06 02:55:45;;;;;;;239.13;10.33;;;12.80;50.10;;;;;;20384;6869;308711;-84
2023/10/06 02:58:15;;;;;;;137.93;6.87;;;12.90;50.20;;;;;;20687;6866;116900;-83
2023/10/06 03:00:36;;;;;;;242.07;9.25;;;12.60;50.20;;;;;;20431;6868;306221;-82
2023/10/06 03:03:12;;;;;;;69.78;6.00;;;12.60;50.20;;;;;;20432;6868;299137;-82
2023/10/06 03:05:38;;;;;;;113.53;6.40;;;12.70;49.70;;;;;;20434;6868;308610;-82
2023/10/06 03:08:11;;;;;;;85.93;5.53;;;12.90;49.50;;;;;;20458;6868;298925;-82
2023/10/06 03:10:43;;;;;;;3.97;3.63;;;12.90;49.30;;;;;;20681;6868;120813;-83
2023/10/06 03:13:10;;;;;;;5.50;5.00;;;12.60;49.30;;;;;;20436;6868;308616;-84
2023/10/06 03:15:36;;;;;;;5.63;4.90;;;12.50;49.40;;;;;;20661;6868;121536;-84
2023/10/06 03:18:05;;;;;;;4.67;4.27;;;12.30;49.60;;;;;;20707;6868;121276;-84
2023/10/06 03:20:40;;;;;;;5.70;4.30;;;12.00;50.30;;;;;;20665;6868;118756;-83
2023/10/06 03:22:56;;;;;;;4.82;4.43;;;11.80;51.00;;;;;;20405;6868;278991;-84
2023/10/06 03:25:22;;;;;;;4.20;3.90;;;12.00;51.60;;;;;;20455;6868;308318;-81
2023/10/06 03:27:53;;;;;;;5.50;4.15;;;12.30;50.40;;;;;;20438;6868;317507;-82
2023/10/06 03:30:19;;;;;;;3.87;3.33;;;12.60;49.30;;;;;;20639;6868;118028;-82
2023/10/06 03:32:48;;;;;;;16.53;3.97;;;12.40;49.30;;;;;;20662;6868;117498;-81
2023/10/06 03:35:21;;;;;;;6.63;3.37;;;12.10;50.00;;;;;;20610;6868;117930;-82
2023/10/06 03:38:27;;;;;;;20.43;3.97;;;11.80;50.50;;;;;;20628;6869;116528;-81
2023/10/06 03:40:22;;;;;;;44.22;5.37;;;11.60;51.00;;;;;;20034;6869;303655;-83
2023/10/06 03:42:39;;;;;;;17.43;3.87;;;11.70;50.70;;;;;;20631;6869;118515;-82
2023/10/06 03:45:18;;;;;;;61.20;5.37;;;11.80;50.70;;;;;;20617;6869;119164;-80
2023/10/06 03:47:34;;;;;;;8.67;3.47;;;11.60;51.00;;;;;;20609;6869;118010;-78
2023/10/06 03:50:00;;;;;;;181.57;8.23;;;11.50;51.40;;;;;;20455;6869;278838;-77
2023/10/06 03:52:25;;;;;;;201.37;9.00;;;11.70;51.80;;;;;;20458;6869;308301;-78
2023/10/06 03:54:56;;;;;;;120.37;7.78;;;12.10;52.00;;;;;;20440;6869;308498;-77
2023/10/06 03:57:16;;;;;;;234.25;8.77;;;12.40;52.20;;;;;;20443;6869;337520;-78
2023/10/06 03:59:44;;;;;;;37.88;5.22;;;12.70;51.30;;;;;;20439;6869;279373;-77
2023/10/06 04:02:08;;;;;;;143.03;7.43;;;12.90;50.90;;;;;;20429;6869;309031;-77
2023/10/06 04:04:35;;;;;;;128.25;6.93;;;13.00;50.40;;;;;;20427;6869;338728;-77
2023/10/06 04:07:00;;;;;;;218.10;9.43;;;13.20;49.60;;;;;;20630;6869;119440;-77
2023/10/06 04:09:30;;;;;;;50.72;5.15;;;12.90;49.70;;;;;;20606;6866;120397;-77
2023/10/06 04:11:57;;;;;;;230.10;9.07;;;12.60;50.50;;;;;;20647;6868;121252;-77
2023/10/06 04:14:20;;;;;;;112.32;7.12;;;12.30;51.20;;;;;;20445;6868;279442;-77
2023/10/06 04:16:46;;;;;;;159.40;7.37;;;12.40;51.60;;;;;;20622;6868;116737;-78
2023/10/06 04:19:14;;;;;;;370.10;12.00;;;12.30;51.40;;;;;;20598;6868;117674;-76
2023/10/06 04:21:37;;;;;;;318.33;10.87;;;12.10;51.50;;;;;;20606;6868;118319;-75
2023/10/06 04:24:03;;;;;;;543.57;15.20;;;11.90;51.80;;;;;;20417;6868;281013;-75
2023/10/06 04:26:30;;;;;;;383.13;12.67;;;12.00;51.70;;;;;;20618;6868;119041;-78
2023/10/06 04:28:57;;;;;;;455.63;12.87;;;12.00;51.60;;;;;;20378;6868;338591;-75
2023/10/06 04:31:20;;;;;;;231.63;8.13;;;12.10;51.70;;;;;;20638;6868;68681;-75
2023/10/06 04:33:46;;;;;;;152.83;6.77;;;11.80;51.90;;;;;;20626;6868;118153;-75
2023/10/06 04:36:20;;;;;;;362.10;10.07;;;11.90;51.70;;;;;;20407;6868;342707;-75
2023/10/06 04:38:39;;;;;;;216.00;7.77;;;11.90;51.70;;;;;;20399;6868;307944;-79
2023/10/06 04:41:03;;;;;;;344.17;10.70;;;12.10;51.20;;;;;;20364;6868;311303;-74
2023/10/06 04:43:30;;;;;;;118.73;6.80;;;12.40;50.30;;;;;;20408;6868;280296;-77
2023/10/06 04:45:56;;;;;;;299.10;9.33;;;12.50;50.40;;;;;;20409;6868;308298;-75
2023/10/06 04:48:22;;;;;;;275.17;9.97;;;12.50;50.40;;;;;;20620;6869;118998;-76
2023/10/06 04:50:51;;;;;;;488.87;13.88;;;12.30;50.50;;;;;;20411;6869;315936;-72
2023/10/06 04:53:16;;;;;;;570.83;15.23;;;12.20;50.90;;;;;;20622;6869;118549;-74
2023/10/06 04:55:42;;;;;;;380.23;11.77;;;12.00;51.00;;;;;;20406;6869;285869;-73
2023/10/06 04:58:07;;;;;;;337.20;11.38;;;12.00;51.40;;;;;;20624;6869;119609;-76
2023/10/06 05:00:33;;;;;;;176.07;8.27;;;11.90;51.50;;;;;;20404;6869;279418;-72
2023/10/06 05:02:59;;;;;;;130.47;6.57;;;11.80;52.00;;;;;;20615;6869;122133;-72
2023/10/06 05:05:26;;;;;;;239.73;10.18;;;11.80;52.30;;;;;;20413;6869;326277;-73
2023/10/06 05:07:51;;;;;;;313.92;10.88;;;11.90;52.20;;;;;;20396;6869;312909;-73
2023/10/06 05:10:21;;;;;;;427.37;12.80;;;12.20;52.00;;;;;;20404;6869;280659;-73
2023/10/06 05:12:44;;;;;;;85.82;7.15;;;12.40;51.30;;;;;;20416;6869;309004;-73
2023/10/06 05:15:15;;;;;;;87.50;6.50;;;12.60;51.40;;;;;;20618;6869;123728;-74
2023/10/06 05:17:37;;;;;;;862.50;20.07;;;12.30;51.40;;;;;;20406;6869;291649;-74
2023/10/06 05:20:04;;;;;;;324.17;11.33;;;12.30;51.40;;;;;;20420;6869;315589;-73
2023/10/06 05:22:29;;;;;;;44.27;4.87;;;12.40;51.00;;;;;;20617;6867;118201;-78
2023/10/06 05:24:55;;;;;;;337.58;10.60;;;12.00;51.80;;;;;;20605;6868;123834;-75
2023/10/06 05:27:22;;;;;;;170.63;6.87;;;11.90;51.70;;;;;;20619;6868;124179;-76
2023/10/06 05:29:50;;;;;;;60.80;5.25;;;11.70;52.20;;;;;;20389;6868;308858;-74
2023/10/06 05:32:13;;;;;;;126.27;6.70;;;11.80;51.90;;;;;;20387;6868;280035;-73
2023/10/06 05:34:40;;;;;;;64.47;5.10;;;12.10;51.30;;;;;;20409;6868;338011;-74
2023/10/06 05:37:05;;;;;;;100.90;5.60;;;12.20;50.50;;;;;;20593;6868;117973;-74
2023/10/06 05:39:33;;;;;;;13.77;4.33;;;12.00;50.50;;;;;;20385;6868;289513;-74
2023/10/06 05:41:56;;;;;;;63.90;5.53;;;12.00;50.80;;;;;;20395;6868;283224;-74
2023/10/06 05:44:21;;;;;;;42.90;4.90;;;12.10;50.30;;;;;;20616;6868;120015;-73
2023/10/06 05:46:47;;;;;;;38.13;4.40;;;11.90;50.40;;;;;;20612;6868;120546;-74
2023/10/06 05:49:13;;;;;;;11.73;4.40;;;11.60;50.80;;;;;;20363;6868;338420;-74
2023/10/06 05:51:38;;;;;;;14.27;4.20;;;11.60;51.10;;;;;;20618;6868;120617;-74
2023/10/06 05:54:09;;;;;;;77.53;5.63;;;11.50;51.20;;;;;;20421;6868;304898;-74
2023/10/06 05:56:32;;;;;;;66.70;5.47;;;11.60;51.20;;;;;;20371;6868;284868;-74
2023/10/06 05:58:58;;;;;;;134.97;6.67;;;11.90;50.90;;;;;;20585;6869;123705;-74
2023/10/06 06:01:28;;;;;;;197.23;8.40;;;11.80;50.70;;;;;;20584;6869;119914;-74
2023/10/06 06:03:51;;;;;;;47.00;5.40;;;11.50;51.10;;;;;;20391;6869;337462;-74
2023/10/06 06:06:15;;;;;;;148.47;7.70;;;11.80;51.20;;;;;;20394;6869;281808;-74
2023/10/06 06:08:43;;;;;;;235.20;8.87;;;11.80;51.20;;;;;;20583;6869;121744;-73
2023/10/06 06:11:07;;;;;;;79.07;5.90;;;11.60;51.70;;;;;;20575;6869;122063;-75
2023/10/06 06:13:36;;;;;;;73.27;5.43;;;11.60;51.70;;;;;;20577;6869;120970;-75
2023/10/06 06:16:02;;;;;;;94.20;6.67;;;11.40;52.10;;;;;;20373;6869;308619;-74
2023/10/06 06:18:27;;;;;;;279.92;12.57;;;11.60;52.10;;;;;;20605;6869;117974;-74
2023/10/06 06:20:52;;;;;;;131.05;7.75;;;11.60;51.80;;;;;;20373;6869;344656;-75
2023/10/06 06:23:19;;;;;;;125.63;7.50;;;11.80;52.00;;;;;;20621;6869;121784;-75
2023/10/06 06:25:47;;;;;;;233.18;9.48;;;11.90;51.80;;;;;;20395;6869;339549;-75
2023/10/06 06:28:12;;;;;;;349.87;12.87;;;12.00;52.30;;;;;;20595;6869;123672;-74
2023/10/06 06:30:39;;;;;;;153.68;9.10;;;12.00;51.50;;;;;;20586;6869;124247;-74
2023/10/06 06:33:12;;;;;;;35.27;4.70;;;11.80;51.60;;;;;;20593;6867;123913;-74
2023/10/06 06:35:32;;;;;;;135.60;7.97;;;11.70;52.10;;;;;;20363;6868;312724;-74
2023/10/06 06:38:04;;;;;;;159.40;8.97;;;11.90;52.20;;;;;;20395;6868;279663;-84
2023/10/06 06:40:28;;;;;;;62.90;6.80;;;12.30;52.20;;;;;;20596;6868;119105;-73
2023/10/06 06:42:55;;;;;;;91.78;7.75;;;12.30;51.90;;;;;;20581;6868;124396;-75
2023/10/06 06:45:20;;;;;;;319.60;12.53;;;12.10;52.20;;;;;;20601;6868;121251;-74
2023/10/06 06:47:45;;;;;;;394.83;13.27;;;12.00;52.40;;;;;;20366;6868;309997;-74
2023/10/06 06:50:15;;;;;;;374.05;12.85;;;12.10;52.50;;;;;;20377;6868;309132;-74
2023/10/06 06:52:38;;;;;;;21.87;6.62;;;12.50;51.70;;;;;;20364;6868;284490;-75
2023/10/06 06:55:05;;;;;;;31.83;6.33;;;12.80;51.60;;;;;;20588;6868;123870;-80
2023/10/06 06:57:31;;;;;;;250.20;11.03;;;12.70;51.50;;;;;;20613;6868;121903;-83
2023/10/06 06:59:58;;;;;;;379.40;13.15;;;12.50;51.90;;;;;;20387;6868;309800;-83
2023/10/06 07:02:23;;;;;;;422.13;15.32;;;12.60;51.80;;;;;;20375;6868;338582;-83
2023/10/06 07:04:48;;;;;;;113.87;7.30;;;12.90;51.20;;;;;;20621;6868;119258;-83
2023/10/06 07:07:15;;;;;;;44.47;5.33;;;12.70;51.10;;;;;;20635;6868;119446;-83
2023/10/06 07:09:40;;;;;;;7.03;5.27;;;12.70;51.50;;;;;;20620;6868;118865;-84
2023/10/06 07:12:06;;;;;;;96.53;6.72;;;12.60;52.10;;;;;;20620;6869;119556;-83
2023/10/06 07:14:31;;;;;;;110.77;7.70;;;12.50;52.40;;;;;;20397;6869;342043;-84
2023/10/06 07:16:57;;;;;;;58.38;7.60;;;12.70;52.50;;;;;;20399;6869;279654;-83
2023/10/06 07:19:22;;;;;;;78.90;6.97;;;13.00;51.70;;;;;;20618;6869;121637;-83
2023/10/06 07:21:51;;;;;;;49.40;7.10;;;13.10;51.70;;;;;;20427;6869;279564;-84
2023/10/06 07:25:10;;;;;;;35.17;5.90;;;13.20;52.00;;;;;;20627;6869;121698;-81
2023/10/06 07:27:34;;;;;;;162.43;8.70;;;13.20;51.70;;;;;;20620;6869;118609;-83
2023/10/06 07:29:58;;;;;;;30.47;6.80;;;13.10;52.00;;;;;;20412;6869;314354;-83
2023/10/06 07:32:24;;;;;;;95.97;8.17;;;13.30;51.90;;;;;;20413;6869;280775;-84
2023/10/06 07:34:52;;;;;;;28.42;6.85;;;13.60;51.00;;;;;;20433;6869;287141;-86
2023/10/06 07:37:15;;;;;;;82.50;7.30;;;13.90;50.40;;;;;;20638;6869;119659;-84
2023/10/06 07:39:40;;;;;;;95.47;7.50;;;13.80;50.80;;;;;;20643;6869;117844;-83
2023/10/06 07:42:06;;;;;;;20.13;7.00;;;13.60;50.70;;;;;;20438;6869;313807;-79
2023/10/06 07:44:33;;;;;;;71.23;7.67;;;13.80;51.10;;;;;;20400;6867;307943;-80
2023/10/06 07:46:57;;;;;;;6.37;5.77;;;14.00;50.70;;;;;;20584;6868;122026;-80
2023/10/06 07:49:23;;;;;;;7.87;6.50;;;14.30;51.00;;;;;;20412;6868;284974;-83
2023/10/06 07:51:50;;;;;;;7.03;6.50;;;14.60;50.40;;;;;;20411;6868;311918;-81
2023/10/06 07:54:17;;;;;;;5.83;5.33;;;14.60;50.40;;;;;;20625;6868;117344;-80
2023/10/06 07:56:42;;;;;;;5.57;5.07;;;14.60;50.40;;;;;;20620;6868;117832;-81
2023/10/06 07:59:08;;;;;;;5.87;5.27;;;14.50;50.90;;;;;;20594;6868;121955;-81
2023/10/06 08:01:35;;;;;;;6.30;5.70;;;14.50;51.20;;;;;;20405;6868;283167;-80
2023/10/06 08:04:00;;;;;;;5.87;5.43;;;15.00;50.90;;;;;;20612;6868;119593;-80
2023/10/06 08:06:25;;;;;;;5.47;5.07;;;15.00;50.90;;;;;;20620;6868;124345;-80
2023/10/06 08:08:51;;;;;;;6.07;5.47;;;15.00;50.90;;;;;;20374;6868;278652;-81
2023/10/06 08:11:16;;;;;;;5.67;5.10;;;15.30;50.20;;;;;;20626;6868;121092;-81
2023/10/06 08:13:42;;;;;;;7.95;5.50;;;15.50;50.00;;;;;;20631;6868;117443;-81
2023/10/06 08:16:12;;;;;;;5.57;4.93;;;15.60;50.10;;;;;;20629;6868;121294;-83
2023/10/06 08:18:40;;;;;;;5.23;4.70;;;15.70;50.50;;;;;;20639;6868;117279;-84
2023/10/06 08:21:07;;;;;;;6.03;5.07;;;15.60;50.40;;;;;;20654;6868;119332;-84
2023/10/06 08:23:37;;;;;;;6.67;5.90;;;15.70;51.00;;;;;;20450;6869;278591;-84
2023/10/06 08:26:01;;;;;;;5.77;5.20;;;16.10;49.70;;;;;;20605;6869;120169;-84
2023/10/06 08:28:46;;;;;;;7.35;5.15;;;16.40;49.50;;;;;;20680;6869;69732;-79
2023/10/06 08:31:24;;;;;;;6.73;6.00;;;16.50;49.60;;;;;;20357;6752;316695;-74
2023/10/06 08:33:58;;;;;;;6.23;5.50;;;16.90;48.30;;;;;;20698;6770;117560;-73
2023/10/06 08:36:37;;;;;;;7.45;6.53;;;17.40;47.70;;;;;;20455;6782;314193;-73
2023/10/06 08:39:38;;;;;;;6.53;5.60;;;17.40;47.70;;;;;;20898;6766;117001;-72
2023/10/06 08:42:12;;;;;;;7.30;5.30;;;17.60;47.50;;;;;;20626;6795;122920;-73
2023/10/06 08:44:47;;;;;;;7.10;5.70;;;17.60;47.70;;;;;;20740;6783;117110;-73
2023/10/06 08:47:23;;;;;;;6.00;5.13;;;17.60;47.80;;;;;;20743;6760;122118;-74
2023/10/06 08:49:59;;;;;;;6.17;5.47;;;17.60;48.00;;;;;;20719;6760;119777;-74
2023/10/06 08:52:34;;;;;;;6.03;5.53;;;17.60;47.90;;;;;;20815;6746;118109;-74
2023/10/06 08:55:14;;;;;;;6.07;5.37;;;17.60;47.70;;;;;;20640;6782;117551;-74
2023/10/06 08:57:49;;;;;;;6.62;6.00;;;17.80;48.00;;;;;;20474;6776;308280;-74
2023/10/06 09:00:24;;;;;;;6.53;5.83;;;18.10;46.50;;;;;;20603;6773;117278;-73
2023/10/06 09:03:07;;;;;;;10.10;5.90;;;18.40;46.40;;;;;;20706;6761;117581;-74
2023/10/06 09:05:36;;;;;;;8.87;6.23;;;18.40;46.30;;;;;;20761;6761;117256;-73
2023/10/06 09:08:11;;;;;;;6.63;5.37;;;18.40;46.40;;;;;;20634;6794;117384;-73
2023/10/06 09:10:49;;;;;;;5.83;5.27;;;18.50;46.50;;;;;;20491;6798;117966;-73
2023/10/06 09:13:26;;;;;;;7.20;5.50;;;18.60;46.40;;;;;;20748;6771;123060;-74
2023/10/06 09:16:06;;;;;;;7.37;5.53;;;18.50;46.30;;;;;;20616;6788;117430;-74
2023/10/06 09:18:40;;;;;;;7.90;4.43;;;18.60;46.30;;;;;;20705;6767;117237;-74
2023/10/06 09:21:19;;;;;;;7.28;4.93;;;18.70;46.30;;;;;;20317;6789;279630;-73
2023/10/06 09:24:00;;;;;;;3.80;3.40;;;19.20;43.40;;;;;;20816;6758;117157;-73
2023/10/06 09:26:30;;;;;;;5.13;4.70;;;19.50;43.60;;;;;;20855;6733;117329;-73
2023/10/06 09:29:07;;;;;;;6.22;5.65;;;19.70;43.80;;;;;;20639;6733;276952;-75
2023/10/06 09:31:44;;;;;;;5.80;5.20;;;20.10;42.30;;;;;;20464;6733;307448;-74
2023/10/06 09:34:24;;;;;;;6.43;5.30;;;20.70;41.70;;;;;;20512;6761;288937;-74
2023/10/06 09:36:59;;;;;;;6.97;5.70;;;21.20;40.90;;;;;;20527;6760;277884;-75
2023/10/06 09:39:45;;;;;;;6.15;5.55;;;21.60;40.40;;;;;;20486;6801;325465;-75
2023/10/06 09:42:20;;;;;;;6.72;5.18;;;21.90;39.80;;;;;;20557;6741;305943;-74
2023/10/06 09:45:07;;;;;;;4.93;4.50;;;22.30;39.30;;;;;;20766;6747;117611;-81
2023/10/06 09:47:42;;;;;;;5.20;4.80;;;22.20;39.70;;;;;;20528;6811;307145;-74
2023/10/06 09:50:17;;;;;;;5.07;4.50;;;22.40;38.80;;;;;;20622;6757;117239;-74
2023/10/06 09:52:53;;;;;;;6.57;4.80;;;22.40;39.50;;;;;;20449;6768;277766;-73
2023/10/06 09:55:29;;;;;;;4.80;4.40;;;22.50;39.20;;;;;;20672;6763;117171;-74
2023/10/06 09:58:05;;;;;;;5.03;4.60;;;22.70;39.40;;;;;;20496;6768;285956;-75
2023/10/06 10:00:40;;;;;;;7.00;4.73;;;22.70;39.30;;;;;;20363;6762;278625;-76
2023/10/06 10:03:16;;;;;;;6.90;5.03;;;23.00;39.00;;;;;;20650;6759;124919;-74
2023/10/06 10:05:52;;;;;;;5.53;4.93;;;23.20;38.70;;;;;;20472;6778;306697;-75
2023/10/06 10:08:31;;;;;;;6.13;4.37;;;23.20;38.60;;;;;;20666;6766;117281;-75
2023/10/06 10:11:13;;;;;;;5.93;4.50;;;23.30;39.10;;;;;;20487;6766;148437;-75
2023/10/06 10:14:02;;;;;;;6.50;5.17;;;23.20;39.40;;;;;;20443;6781;307250;-79
2023/10/06 10:16:45;;;;;;;6.63;5.70;;;23.30;38.30;;;;;;20407;6770;307049;-75
2023/10/06 10:19:22;;;;;;;6.45;5.82;;;23.50;37.30;;;;;;20373;6796;322713;-78
2023/10/06 10:21:58;;;;;;;7.67;4.87;;;23.60;37.80;;;;;;20689;6758;116902;-75
2023/10/06 10:24:34;;;;;;;5.47;4.90;;;23.60;37.80;;;;;;20483;6763;305810;-76
2023/10/06 10:27:22;;;;;;;7.63;5.27;;;23.60;38.40;;;;;;20480;6763;426744;-76
2023/10/06 10:29:54;;;;;;;4.93;4.53;;;23.60;37.90;;;;;;20677;6767;116996;-74
2023/10/06 10:32:30;;;;;;;5.57;5.03;;;23.60;37.80;;;;;;20677;6782;117627;-74
2023/10/06 10:35:18;;;;;;;5.13;4.63;;;23.30;39.10;;;;;;20706;6767;117076;-73
2023/10/06 10:37:58;;;;;;;5.47;4.57;;;23.20;38.70;;;;;;20702;6762;117335;-73
2023/10/06 10:40:47;;;;;;;6.83;5.37;;;23.10;38.90;;;;;;20443;6748;307708;-75
2023/10/06 10:43:25;;;;;;;7.20;5.23;;;23.20;38.10;;;;;;20746;6747;116914;-73
2023/10/06 10:45:59;;;;;;;4.93;4.40;;;23.30;38.50;;;;;;20685;6763;117107;-73
2023/10/06 10:48:37;;;;;;;6.03;5.03;;;23.30;38.60;;;;;;20516;6748;315343;-73
2023/10/06 10:51:12;;;;;;;5.80;4.90;;;23.40;38.10;;;;;;20364;6748;323322;-73
2023/10/06 10:53:49;;;;;;;4.77;4.37;;;23.80;37.70;;;;;;20748;6748;118096;-74
2023/10/06 10:56:27;;;;;;;5.00;4.50;;;23.90;38.00;;;;;;20508;6753;296429;-74
2023/10/06 10:59:03;;;;;;;5.57;5.07;;;24.00;37.60;;;;;;20510;6748;336521;-73
2023/10/06 11:01:40;;;;;;;5.07;4.30;;;24.30;37.10;;;;;;20494;6773;117617;-74
2023/10/06 11:04:36;;;;;;;4.17;3.87;;;24.30;37.10;;;;;;20763;6753;117041;-73
2023/10/06 11:06:56;;;;;;;5.00;4.33;;;24.10;36.60;;;;;;20523;6789;296411;-74
2023/10/06 11:09:37;;;;;;;6.13;4.70;;;24.10;36.60;;;;;;20672;6748;117603;-74
2023/10/06 11:12:25;;;;;;;5.40;4.30;;;24.00;37.70;;;;;;20822;6748;117975;-74
2023/10/06 11:15:14;;;;;;;4.17;3.70;;;24.00;36.90;;;;;;20783;6753;117455;-74
2023/10/06 11:17:50;;;;;;;5.28;4.78;;;23.90;37.10;;;;;;20551;6767;294026;-73
2023/10/06 11:20:33;;;;;;;5.97;3.90;;;24.00;35.60;;;;;;20744;6753;117910;-74
2023/10/06 11:23:03;;;;;;;5.20;4.05;;;24.00;35.60;;;;;;20544;6757;333993;-75
2023/10/06 11:25:38;;;;;;;4.47;4.07;;;24.10;34.50;;;;;;20565;6762;276857;-76
2023/10/06 11:28:14;;;;;;;4.67;3.77;;;24.30;33.70;;;;;;20734;6754;117069;-74
2023/10/06 11:30:50;;;;;;;30.07;27.30;;;24.20;33.90;;;;;;20395;6751;279041;-75
2023/10/06 11:33:26;;;;;;;5.57;5.07;;;24.20;33.50;;;;;;20712;6766;118185;-74
2023/10/06 11:36:04;;;;;;;5.43;4.60;;;24.20;34.20;;;;;;20686;6764;120791;-73
2023/10/06 11:38:39;;;;;;;4.93;4.23;;;24.00;34.40;;;;;;20759;6763;121505;-73
2023/10/06 11:41:21;;;;;;;4.07;3.67;;;23.90;34.40;;;;;;20631;6751;121616;-73
2023/10/06 11:43:58;;;;;;;3.70;3.40;;;23.80;34.60;;;;;;20811;6751;117491;-73
2023/10/06 11:46:49;;;;;;;3.63;3.33;;;23.70;34.20;;;;;;20757;6751;117112;-74
2023/10/06 11:49:25;;;;;;;4.50;4.10;;;23.50;33.20;;;;;;20780;6755;117190;-73
2023/10/06 11:52:01;;;;;;;6.30;4.10;;;23.50;33.10;;;;;;20784;6751;117331;-73
2023/10/06 11:54:36;;;;;;;4.53;4.13;;;23.50;32.80;;;;;;20836;6749;117887;-73
2023/10/06 11:57:20;;;;;;;4.90;4.50;;;23.50;32.60;;;;;;20554;6750;305886;-74
2023/10/06 11:59:57;;;;;;;5.07;4.17;;;23.70;31.50;;;;;;20637;6764;120266;-73
2023/10/06 12:03:00;;;;;;;5.00;4.50;;;23.80;31.80;;;;;;20626;6529;277801;-72
2023/10/06 12:05:26;;;;;;;4.73;4.33;;;23.90;31.60;;;;;;20449;6836;344864;-72
2023/10/06 12:07:50;;;;;;;5.00;4.53;;;24.20;31.30;;;;;;20431;6836;293806;-73
2023/10/06 12:10:17;;;;;;;5.73;4.27;;;24.40;30.50;;;;;;20618;6828;116955;-73
2023/10/06 12:12:42;;;;;;;5.70;4.90;;;24.50;30.80;;;;;;20504;6887;117813;-74
2023/10/06 12:15:07;;;;;;;4.60;4.20;;;24.30;31.00;;;;;;20500;6883;118886;-73
2023/10/06 12:17:38;;;;;;;6.87;6.17;;;24.20;31.30;;;;;;20249;6903;281049;-73
2023/10/06 12:20:04;;;;;;;8.20;6.40;;;24.30;29.70;;;;;;20480;6880;121387;-75
2023/10/06 12:22:27;;;;;;;6.68;6.03;;;24.30;29.50;;;;;;20278;6895;313523;-73
2023/10/06 12:24:53;;;;;;;7.63;6.00;;;24.40;28.60;;;;;;20262;6892;290071;-74
2023/10/06 12:27:18;;;;;;;8.23;6.60;;;24.50;29.30;;;;;;20290;6895;311708;-74
2023/10/06 12:29:44;;;;;;;7.43;5.43;;;24.70;28.10;;;;;;20514;6891;117401;-73
2023/10/06 12:32:10;;;;;;;7.67;6.20;;;24.70;28.50;;;;;;20285;6892;280392;-72
2023/10/06 12:34:36;;;;;;;5.97;5.37;;;24.60;28.30;;;;;;20288;6895;282821;-72
2023/10/06 12:37:03;;;;;;;6.17;4.93;;;24.70;28.70;;;;;;20487;6888;118813;-72
2023/10/06 12:39:34;;;;;;;5.50;4.83;;;24.70;28.70;;;;;;20512;6874;119003;-79
2023/10/06 12:42:04;;;;;;;6.57;5.62;;;24.50;28.90;;;;;;20272;6874;288464;-73
2023/10/06 12:44:29;;;;;;;6.30;5.63;;;24.60;28.20;;;;;;20302;6880;280532;-76